Time;durP1;ratioP1;P1;durP2;ratioP2;P2;SDS_P1;SDS_P2;PMS_P1;PMS_P2;Temp;Humidity;BMP_temperature;BMP_pressure;BME280_temperature;BME280_humidity;BME280_pressure;Samples;Min_cycle;Max_cycle;Signal;HPM_P1;HPM_P2
2023/07/23 00:01:42;;;;;;;0.45;0.45;;;;;;;;;;5074565;28;20436;-72
2023/07/23 00:04:07;;;;;;;0.20;0.20;;;;;;;;;;5074671;28;20044;-72
2023/07/23 00:06:33;;;;;;;0.20;0.20;;;;;;;;;;5074605;28;20070;-71
2023/07/23 00:08:58;;;;;;;1.20;1.00;;;;;;;;;;5074504;28;20024;-72
2023/07/23 00:11:24;;;;;;;0.20;0.20;;;;;;;;;;5074517;28;20043;-74
2023/07/23 00:13:49;;;;;;;0.20;0.20;;;;;;;;;;5074331;28;20423;-72
2023/07/23 00:16:15;;;;;;;0.20;0.20;;;;;;;;;;5074264;28;20124;-72
2023/07/23 00:18:40;;;;;;;0.20;0.20;;;;;;;;;;5074375;28;20028;-72
2023/07/23 00:21:05;;;;;;;0.30;0.30;;;;;;;;;;5056452;28;20383;-72
2023/07/23 00:23:31;;;;;;;1.30;1.20;;;;;;;;;;5056528;28;20039;-73
2023/07/23 00:25:56;;;;;;;0.30;0.30;;;;;;;;;;5074743;28;20032;-72
2023/07/23 00:28:22;;;;;;;1.10;0.73;;;;;;;;;;5074531;28;20101;-71
2023/07/23 00:30:47;;;;;;;0.20;0.20;;;;;;;;;;5072980;28;20041;-72
2023/07/23 00:33:13;;;;;;;0.20;0.20;;;;;;;;;;5074048;28;20111;-71
2023/07/23 00:35:38;;;;;;;0.20;0.20;;;;;;;;;;5074170;28;20478;-71
2023/07/23 00:38:03;;;;;;;0.30;0.30;;;;;;;;;;5073836;28;20482;-71
2023/07/23 00:40:29;;;;;;;0.20;0.20;;;;;;;;;;5072590;28;20611;-74
2023/07/23 00:42:54;;;;;;;0.20;0.20;;;;;;;;;;5071860;28;20368;-72
2023/07/23 00:45:20;;;;;;;0.20;0.20;;;;;;;;;;5053423;28;20040;-71
2023/07/23 00:47:45;;;;;;;0.20;0.20;;;;;;;;;;5071523;28;20020;-74
2023/07/23 00:50:12;;;;;;;0.25;0.25;;;;;;;;;;5071754;28;20034;-73
2023/07/23 00:52:38;;;;;;;0.10;0.10;;;;;;;;;;5071222;28;20021;-74
2023/07/23 00:55:04;;;;;;;0.20;0.20;;;;;;;;;;5071145;28;20055;-72
2023/07/23 00:57:29;;;;;;;0.20;0.20;;;;;;;;;;5071462;28;20028;-72
2023/07/23 00:59:56;;;;;;;2.28;1.75;;;;;;;;;;5053494;28;20039;-73
2023/07/23 01:02:22;;;;;;;0.20;0.20;;;;;;;;;;5053096;28;20032;-72
2023/07/23 01:04:47;;;;;;;0.20;0.20;;;;;;;;;;5036392;28;20094;-72
2023/07/23 01:07:13;;;;;;;0.20;0.20;;;;;;;;;;5053115;28;20064;-72
2023/07/23 01:09:39;;;;;;;0.10;0.10;;;;;;;;;;5071130;28;20031;-72
2023/07/23 01:12:05;;;;;;;2.72;0.57;;;;;;;;;;5052963;28;20035;-73
2023/07/23 01:14:31;;;;;;;0.20;0.20;;;;;;;;;;5071304;28;20028;-73
2023/07/23 01:16:57;;;;;;;0.95;0.95;;;;;;;;;;5070569;28;20016;-72
2023/07/23 01:19:26;;;;;;;0.20;0.20;;;;;;;;;;5036511;28;20071;-72
2023/07/23 01:22:00;;;;;;;0.45;0.45;;;;;;;;;;5071278;28;20472;-72
2023/07/23 01:24:26;;;;;;;0.20;0.20;;;;;;;;;;5053161;28;20040;-71
2023/07/23 01:26:51;;;;;;;0.10;0.10;;;;;;;;;;5071073;28;20059;-72
2023/07/23 01:29:17;;;;;;;0.40;0.40;;;;;;;;;;5070249;28;20495;-72
2023/07/23 01:31:42;;;;;;;0.20;0.20;;;;;;;;;;5052682;28;20138;-72
2023/07/23 01:34:07;;;;;;;0.20;0.20;;;;;;;;;;5070809;28;20032;-72
2023/07/23 01:36:33;;;;;;;0.20;0.20;;;;;;;;;;5052855;28;20047;-72
2023/07/23 01:38:58;;;;;;;0.20;0.20;;;;;;;;;;5070773;28;20036;-72
2023/07/23 01:41:24;;;;;;;5.35;5.10;;;;;;;;;;5052103;28;20064;-72
2023/07/23 01:43:50;;;;;;;0.25;0.25;;;;;;;;;;5070729;28;20042;-72
2023/07/23 01:46:15;;;;;;;0.20;0.20;;;;;;;;;;5070312;28;20063;-72
2023/07/23 01:48:40;;;;;;;0.20;0.20;;;;;;;;;;5052299;28;20040;-71
2023/07/23 01:51:08;;;;;;;0.20;0.20;;;;;;;;;;5051452;28;20349;-72
2023/07/23 01:53:34;;;;;;;0.20;0.20;;;;;;;;;;5069739;28;20040;-72
2023/07/23 01:55:59;;;;;;;0.20;0.20;;;;;;;;;;5070484;28;20131;-72
2023/07/23 01:58:24;;;;;;;0.20;0.20;;;;;;;;;;5052416;28;20410;-72
2023/07/23 02:00:55;;;;;;;0.20;0.20;;;;;;;;;;5035870;28;20078;-71
2023/07/23 02:03:21;;;;;;;0.20;0.20;;;;;;;;;;5052358;28;20449;-72
2023/07/23 02:05:54;;;;;;;0.20;0.20;;;;;;;;;;5035556;28;20032;-71
2023/07/23 02:08:19;;;;;;;0.20;0.20;;;;;;;;;;5070202;28;20476;-71
2023/07/23 02:10:44;;;;;;;0.20;0.20;;;;;;;;;;5070409;28;20027;-72
2023/07/23 02:13:10;;;;;;;0.20;0.20;;;;;;;;;;5069933;28;20040;-72
2023/07/23 02:15:35;;;;;;;0.20;0.20;;;;;;;;;;5070169;28;20033;-72
2023/07/23 02:18:00;;;;;;;0.20;0.20;;;;;;;;;;5051971;28;20047;-71
2023/07/23 02:20:26;;;;;;;0.30;0.30;;;;;;;;;;5052404;28;20037;-72
2023/07/23 02:22:51;;;;;;;0.20;0.20;;;;;;;;;;5070309;28;20757;-72
2023/07/23 02:25:17;;;;;;;0.20;0.20;;;;;;;;;;5070047;28;20064;-72
2023/07/23 02:27:42;;;;;;;0.20;0.20;;;;;;;;;;5069956;28;20036;-72
2023/07/23 02:30:08;;;;;;;0.20;0.20;;;;;;;;;;5069547;28;20494;-74
2023/07/23 02:32:33;;;;;;;0.20;0.20;;;;;;;;;;5050940;28;20131;-74
2023/07/23 02:34:58;;;;;;;0.20;0.20;;;;;;;;;;5051592;28;20043;-75
2023/07/23 02:37:24;;;;;;;0.20;0.20;;;;;;;;;;5051903;28;20040;-72
2023/07/23 02:39:49;;;;;;;0.20;0.20;;;;;;;;;;5069915;28;20024;-75
2023/07/23 02:42:14;;;;;;;0.20;0.20;;;;;;;;;;5051463;28;20033;-72
2023/07/23 02:44:40;;;;;;;0.20;0.20;;;;;;;;;;5069804;28;20466;-71
2023/07/23 02:47:05;;;;;;;0.20;0.20;;;;;;;;;;5052067;28;20044;-72
2023/07/23 02:49:31;;;;;;;0.20;0.20;;;;;;;;;;5052138;28;20111;-72
2023/07/23 02:51:57;;;;;;;0.20;0.20;;;;;;;;;;5051797;28;20373;-71
2023/07/23 02:54:22;;;;;;;0.20;0.20;;;;;;;;;;5051414;28;20127;-72
2023/07/23 02:56:47;;;;;;;0.20;0.20;;;;;;;;;;5069750;28;20372;-74
2023/07/23 02:59:13;;;;;;;0.20;0.20;;;;;;;;;;5051483;28;20033;-73
2023/07/23 03:01:38;;;;;;;0.20;0.20;;;;;;;;;;5052980;28;20031;-74
2023/07/23 03:04:04;;;;;;;0.20;0.20;;;;;;;;;;5051596;28;20041;-74
2023/07/23 03:06:29;;;;;;;0.20;0.20;;;;;;;;;;5049179;28;20061;-75
2023/07/23 03:08:54;;;;;;;0.10;0.10;;;;;;;;;;5049450;28;20503;-74
2023/07/23 03:11:20;;;;;;;0.20;0.20;;;;;;;;;;5049215;28;20044;-74
2023/07/23 03:13:45;;;;;;;0.20;0.20;;;;;;;;;;5047675;28;20096;-75
2023/07/23 03:16:12;;;;;;;0.20;0.20;;;;;;;;;;5047201;28;20061;-74
2023/07/23 03:18:37;;;;;;;0.20;0.20;;;;;;;;;;5046328;28;20067;-73
2023/07/23 03:21:04;;;;;;;0.20;0.20;;;;;;;;;;5046266;28;20088;-74
2023/07/23 03:23:30;;;;;;;0.20;0.20;;;;;;;;;;5047994;28;20484;-74
2023/07/23 03:25:55;;;;;;;0.20;0.20;;;;;;;;;;5046230;28;20025;-74
2023/07/23 03:28:21;;;;;;;0.20;0.20;;;;;;;;;;5047390;28;20369;-75
2023/07/23 03:30:46;;;;;;;0.20;0.20;;;;;;;;;;5047444;28;20043;-71
2023/07/23 03:33:11;;;;;;;0.20;0.20;;;;;;;;;;5046543;28;20128;-73
2023/07/23 03:35:37;;;;;;;0.20;0.20;;;;;;;;;;5048978;28;20416;-74
2023/07/23 03:38:02;;;;;;;0.20;0.20;;;;;;;;;;5048867;28;20119;-74
2023/07/23 03:40:27;;;;;;;0.20;0.20;;;;;;;;;;5047947;28;20025;-70
2023/07/23 03:42:53;;;;;;;0.20;0.20;;;;;;;;;;5048923;28;20036;-73
2023/07/23 03:45:18;;;;;;;0.22;0.22;;;;;;;;;;5047030;28;20323;-73
2023/07/23 03:47:44;;;;;;;0.20;0.20;;;;;;;;;;5048827;28;20076;-74
2023/07/23 03:50:09;;;;;;;0.20;0.20;;;;;;;;;;5047377;28;20186;-73
2023/07/23 03:52:34;;;;;;;0.20;0.20;;;;;;;;;;5048273;28;20132;-73
2023/07/23 03:55:00;;;;;;;0.20;0.20;;;;;;;;;;5047424;28;20138;-73
2023/07/23 03:57:25;;;;;;;0.20;0.20;;;;;;;;;;5048494;28;20049;-73
2023/07/23 03:59:50;;;;;;;0.20;0.20;;;;;;;;;;5048465;28;20036;-73
2023/07/23 04:02:16;;;;;;;0.20;0.20;;;;;;;;;;5047016;28;20067;-74
2023/07/23 04:04:41;;;;;;;0.20;0.20;;;;;;;;;;5046737;28;20478;-74
2023/07/23 04:07:07;;;;;;;0.20;0.20;;;;;;;;;;5048326;28;20547;-73
2023/07/23 04:09:34;;;;;;;0.20;0.20;;;;;;;;;;5047075;28;20408;-74
2023/07/23 04:11:59;;;;;;;0.20;0.20;;;;;;;;;;5046189;28;20499;-74
2023/07/23 04:14:25;;;;;;;0.20;0.20;;;;;;;;;;5048226;28;20033;-73
2023/07/23 04:16:51;;;;;;;0.20;0.20;;;;;;;;;;5047820;28;20510;-74
2023/07/23 04:19:16;;;;;;;0.30;0.30;;;;;;;;;;5048297;28;20040;-74
2023/07/23 04:21:42;;;;;;;0.20;0.20;;;;;;;;;;5048498;28;20072;-73
2023/07/23 04:24:07;;;;;;;0.20;0.20;;;;;;;;;;5048467;28;20028;-75
2023/07/23 04:26:33;;;;;;;0.20;0.20;;;;;;;;;;5047095;28;20040;-73
2023/07/23 04:28:58;;;;;;;0.30;0.30;;;;;;;;;;5047646;28;20127;-74
2023/07/23 04:31:24;;;;;;;0.20;0.20;;;;;;;;;;5047766;28;20045;-74
2023/07/23 04:33:50;;;;;;;0.20;0.20;;;;;;;;;;5048364;28;20099;-74
2023/07/23 04:36:15;;;;;;;0.20;0.20;;;;;;;;;;5047804;28;20123;-74
2023/07/23 04:38:41;;;;;;;0.20;0.20;;;;;;;;;;5048495;28;20036;-73
2023/07/23 04:41:07;;;;;;;0.20;0.20;;;;;;;;;;5045933;28;20106;-74
2023/07/23 04:43:35;;;;;;;0.20;0.20;;;;;;;;;;5030701;28;20040;-74
2023/07/23 04:46:01;;;;;;;0.20;0.20;;;;;;;;;;5047943;28;20048;-74
2023/07/23 04:48:26;;;;;;;0.20;0.20;;;;;;;;;;5048107;28;20267;-74
2023/07/23 04:50:58;;;;;;;0.20;0.20;;;;;;;;;;5048356;28;20480;-74
2023/07/23 04:53:24;;;;;;;0.20;0.20;;;;;;;;;;5047870;28;20037;-73
2023/07/23 04:55:50;;;;;;;0.30;0.30;;;;;;;;;;5048089;28;20455;-73
2023/07/23 04:58:16;;;;;;;0.20;0.20;;;;;;;;;;5046319;28;20037;-73
2023/07/23 05:00:41;;;;;;;0.20;0.20;;;;;;;;;;5047561;28;20044;-73
2023/07/23 05:03:06;;;;;;;0.68;0.68;;;;;;;;;;5047713;28;20021;-75
2023/07/23 05:05:32;;;;;;;0.20;0.20;;;;;;;;;;5047492;28;20037;-73
2023/07/23 05:07:57;;;;;;;0.28;0.28;;;;;;;;;;5047926;28;20472;-72
2023/07/23 05:10:23;;;;;;;0.20;0.20;;;;;;;;;;5047640;28;20487;-73
2023/07/23 05:12:49;;;;;;;0.30;0.30;;;;;;;;;;5047815;28;20037;-71
2023/07/23 05:15:14;;;;;;;4.85;2.65;;;;;;;;;;5048168;28;20477;-72
2023/07/23 05:17:40;;;;;;;0.20;0.20;;;;;;;;;;5049972;28;20021;-72
2023/07/23 05:20:07;;;;;;;0.20;0.20;;;;;;;;;;5049849;28;20106;-72
2023/07/23 05:22:33;;;;;;;0.20;0.20;;;;;;;;;;5048628;28;20108;-72
2023/07/23 05:24:58;;;;;;;0.30;0.30;;;;;;;;;;5049746;28;20152;-74
2023/07/23 05:27:25;;;;;;;0.20;0.20;;;;;;;;;;5050173;28;20037;-72
2023/07/23 05:29:51;;;;;;;0.40;0.40;;;;;;;;;;5049510;28;20048;-73
2023/07/23 05:32:16;;;;;;;0.20;0.20;;;;;;;;;;5049689;28;20021;-73
2023/07/23 05:34:41;;;;;;;0.28;0.28;;;;;;;;;;5049449;28;20036;-74
2023/07/23 05:37:07;;;;;;;0.38;0.38;;;;;;;;;;5049277;28;20176;-73
2023/07/23 05:39:32;;;;;;;0.30;0.30;;;;;;;;;;5049486;28;20032;-73
2023/07/23 05:41:58;;;;;;;0.30;0.30;;;;;;;;;;5049446;28;20472;-72
2023/07/23 05:44:25;;;;;;;0.60;0.60;;;;;;;;;;5049155;28;20055;-71
2023/07/23 05:46:50;;;;;;;0.20;0.20;;;;;;;;;;5049290;28;20047;-72
2023/07/23 05:49:16;;;;;;;0.30;0.30;;;;;;;;;;5049272;28;20060;-75
2023/07/23 05:51:42;;;;;;;0.40;0.40;;;;;;;;;;5049810;28;20107;-72
2023/07/23 05:54:07;;;;;;;0.30;0.30;;;;;;;;;;5049247;28;20033;-74
2023/07/23 05:56:33;;;;;;;1.08;0.93;;;;;;;;;;5049203;28;20365;-73
2023/07/23 05:58:58;;;;;;;0.30;0.30;;;;;;;;;;5049153;28;20108;-73
2023/07/23 06:01:24;;;;;;;0.38;0.38;;;;;;;;;;5047729;28;20051;-74
2023/07/23 06:03:50;;;;;;;1.63;1.17;;;;;;;;;;5049135;28;20040;-72
2023/07/23 06:06:15;;;;;;;0.40;0.40;;;;;;;;;;5048979;28;20059;-72
2023/07/23 06:08:41;;;;;;;0.40;0.40;;;;;;;;;;5048929;28;20119;-71
2023/07/23 06:11:07;;;;;;;0.38;0.38;;;;;;;;;;5048680;28;20029;-73
2023/07/23 06:13:32;;;;;;;3.55;1.80;;;;;;;;;;5048774;28;20087;-72
2023/07/23 06:15:58;;;;;;;3.45;1.63;;;;;;;;;;5048789;28;20068;-71
2023/07/23 06:18:23;;;;;;;8.13;2.80;;;;;;;;;;5048719;28;20029;-72
2023/07/23 06:20:49;;;;;;;0.40;0.40;;;;;;;;;;5049230;28;20037;-72
2023/07/23 06:23:14;;;;;;;0.25;0.25;;;;;;;;;;5048439;28;20032;-73
2023/07/23 06:25:39;;;;;;;0.68;0.60;;;;;;;;;;5048825;28;20068;-73
2023/07/23 06:28:05;;;;;;;1.10;1.00;;;;;;;;;;5049009;28;20037;-71
2023/07/23 06:30:33;;;;;;;0.35;0.35;;;;;;;;;;5048694;28;20033;-72
2023/07/23 06:32:58;;;;;;;0.88;0.77;;;;;;;;;;5047421;28;20400;-71
2023/07/23 06:35:24;;;;;;;0.98;0.80;;;;;;;;;;5047810;28;20025;-71
2023/07/23 06:37:49;;;;;;;1.23;0.95;;;;;;;;;;5048500;28;20037;-71
2023/07/23 06:40:14;;;;;;;3.55;0.98;;;;;;;;;;5048306;28;20434;-72
2023/07/23 06:42:40;;;;;;;0.30;0.30;;;;;;;;;;5048667;28;20127;-71
2023/07/23 06:45:05;;;;;;;0.32;0.32;;;;;;;;;;5047965;28;20476;-71
2023/07/23 06:47:31;;;;;;;1.08;1.02;;;;;;;;;;5048311;28;20087;-71
2023/07/23 06:49:56;;;;;;;1.85;0.90;;;;;;;;;;5048230;28;20028;-73
2023/07/23 06:52:22;;;;;;;1.65;0.80;;;;;;;;;;5048567;28;20084;-72
2023/07/23 06:54:47;;;;;;;5.70;2.72;;;;;;;;;;5048425;28;20106;-72
2023/07/23 06:57:12;;;;;;;3.53;1.52;;;;;;;;;;5048055;28;20040;-71
2023/07/23 06:59:38;;;;;;;0.45;0.45;;;;;;;;;;5048231;28;20029;-71
2023/07/23 07:02:03;;;;;;;1.05;1.02;;;;;;;;;;5048160;28;20021;-72
2023/07/23 07:04:29;;;;;;;1.33;0.77;;;;;;;;;;5047897;28;20036;-72
2023/07/23 07:06:54;;;;;;;0.63;0.63;;;;;;;;;;5048155;28;20071;-71
2023/07/23 07:12:47;;;;;;;1.40;1.20;;;;;;;;;;5046885;28;20043;-73
2023/07/23 07:15:13;;;;;;;0.30;0.30;;;;;;;;;;5048407;28;20275;-72
2023/07/23 07:17:38;;;;;;;8.60;1.77;;;;;;;;;;5047871;28;20495;-73
2023/07/23 07:20:04;;;;;;;5.68;1.77;;;;;;;;;;5048281;28;20388;-72
2023/07/23 07:22:29;;;;;;;0.50;0.50;;;;;;;;;;5048224;28;20032;-71
2023/07/23 07:24:55;;;;;;;1.45;0.85;;;;;;;;;;5047692;28;20095;-73
2023/07/23 07:27:20;;;;;;;0.30;0.30;;;;;;;;;;5047943;28;20059;-72
2023/07/23 07:29:45;;;;;;;0.40;0.40;;;;;;;;;;5047891;28;20033;-71
2023/07/23 07:32:11;;;;;;;0.40;0.40;;;;;;;;;;5048015;28;20067;-71
2023/07/23 07:34:36;;;;;;;0.30;0.30;;;;;;;;;;5047946;28;20048;-71
2023/07/23 07:37:02;;;;;;;0.47;0.47;;;;;;;;;;5047472;28;20037;-72
2023/07/23 07:39:27;;;;;;;5.18;2.55;;;;;;;;;;5047653;28;20025;-72
2023/07/23 07:41:56;;;;;;;0.30;0.30;;;;;;;;;;5047714;28;20025;-72
2023/07/23 07:44:22;;;;;;;0.88;0.85;;;;;;;;;;5047668;28;20087;-72
2023/07/23 07:46:47;;;;;;;0.30;0.30;;;;;;;;;;5047651;28;20495;-71
2023/07/23 07:49:12;;;;;;;1.00;0.80;;;;;;;;;;5050357;28;20087;-71
2023/07/23 07:51:43;;;;;;;0.30;0.30;;;;;;;;;;5050980;28;20403;-72
2023/07/23 07:54:08;;;;;;;0.20;0.20;;;;;;;;;;5050645;28;20554;-72
2023/07/23 07:56:34;;;;;;;0.45;0.45;;;;;;;;;;5051163;28;20041;-72
2023/07/23 07:58:59;;;;;;;0.40;0.40;;;;;;;;;;5050716;28;20037;-71
2023/07/23 08:01:25;;;;;;;1.38;0.95;;;;;;;;;;5051030;28;20033;-72
2023/07/23 08:03:50;;;;;;;3.60;0.93;;;;;;;;;;5050925;28;20043;-71
2023/07/23 08:06:16;;;;;;;0.65;0.65;;;;;;;;;;5051136;28;20037;-71
2023/07/23 08:08:42;;;;;;;0.40;0.40;;;;;;;;;;5050608;28;20040;-72
2023/07/23 08:11:08;;;;;;;0.40;0.40;;;;;;;;;;5050753;28;20029;-71
2023/07/23 08:13:39;;;;;;;0.43;0.43;;;;;;;;;;5050532;28;20086;-72
2023/07/23 08:16:05;;;;;;;0.40;0.40;;;;;;;;;;5050986;28;20040;-71
2023/07/23 08:18:31;;;;;;;0.40;0.40;;;;;;;;;;5032910;28;20025;-71
2023/07/23 08:20:57;;;;;;;2.85;1.65;;;;;;;;;;5050653;28;20071;-72
2023/07/23 08:23:24;;;;;;;0.50;0.50;;;;;;;;;;5050504;28;20114;-72
2023/07/23 08:25:52;;;;;;;0.30;0.30;;;;;;;;;;5049399;28;20035;-72
2023/07/23 08:28:21;;;;;;;0.43;0.43;;;;;;;;;;5050538;28;20025;-72
2023/07/23 08:30:47;;;;;;;0.70;0.70;;;;;;;;;;5050239;28;20060;-71
2023/07/23 08:33:12;;;;;;;4.95;2.70;;;;;;;;;;5049934;28;20538;-72
2023/07/23 08:35:38;;;;;;;1.98;1.40;;;;;;;;;;5050542;28;20032;-71
2023/07/23 08:38:03;;;;;;;1.45;1.23;;;;;;;;;;5049841;28;20021;-71
2023/07/23 08:40:31;;;;;;;0.40;0.40;;;;;;;;;;5050020;28;20480;-72
2023/07/23 08:42:56;;;;;;;1.00;0.88;;;;;;;;;;5048756;28;20043;-72
2023/07/23 08:45:31;;;;;;;2.05;1.15;;;;;;;;;;5050290;28;20547;-72
2023/07/23 08:48:11;;;;;;;1.50;0.98;;;;;;;;;;5050089;28;20534;-72
2023/07/23 08:50:37;;;;;;;1.75;1.20;;;;;;;;;;5049849;28;20041;-72
2023/07/23 08:53:03;;;;;;;3.33;1.65;;;;;;;;;;5049900;28;20048;-71
2023/07/23 08:55:28;;;;;;;2.92;1.77;;;;;;;;;;5048707;28;20044;-71
2023/07/23 08:57:54;;;;;;;2.55;1.63;;;;;;;;;;5049787;28;20029;-73
2023/07/23 09:00:19;;;;;;;0.40;0.40;;;;;;;;;;5048644;28;20421;-71
2023/07/23 09:02:45;;;;;;;2.25;1.20;;;;;;;;;;5049974;28;20121;-73
2023/07/23 09:05:11;;;;;;;1.23;1.13;;;;;;;;;;5049935;28;20033;-71
2023/07/23 09:07:36;;;;;;;1.85;0.90;;;;;;;;;;5049985;28;20033;-71
2023/07/23 09:10:02;;;;;;;15.80;2.92;;;;;;;;;;5049859;28;20114;-71
2023/07/23 09:12:29;;;;;;;1.90;0.65;;;;;;;;;;5049605;28;20041;-70
2023/07/23 09:14:54;;;;;;;3.13;1.42;;;;;;;;;;5049627;28;20060;-71
2023/07/23 09:17:20;;;;;;;0.90;0.70;;;;;;;;;;5049681;28;20072;-71
2023/07/23 09:19:45;;;;;;;0.60;0.60;;;;;;;;;;5049564;28;20041;-73
2023/07/23 09:22:11;;;;;;;1.08;0.80;;;;;;;;;;5049493;28;20173;-71
2023/07/23 09:24:36;;;;;;;1.40;1.15;;;;;;;;;;5049748;28;20495;-70
2023/07/23 09:27:02;;;;;;;2.67;0.90;;;;;;;;;;5049572;28;20029;-71
2023/07/23 09:29:37;;;;;;;0.35;0.35;;;;;;;;;;5049149;28;20033;-71
2023/07/23 09:32:03;;;;;;;0.40;0.40;;;;;;;;;;5031702;28;20082;-71
2023/07/23 09:34:28;;;;;;;1.88;1.50;;;;;;;;;;5049068;28;20087;-71
2023/07/23 09:36:54;;;;;;;4.22;1.90;;;;;;;;;;5049745;28;20029;-71
2023/07/23 09:39:20;;;;;;;1.65;1.38;;;;;;;;;;5031409;28;20396;-72
2023/07/23 09:41:45;;;;;;;9.75;2.65;;;;;;;;;;5049612;28;20170;-71
2023/07/23 09:44:11;;;;;;;2.63;1.33;;;;;;;;;;5049183;28;20033;-71
2023/07/23 09:46:37;;;;;;;0.52;0.52;;;;;;;;;;5048095;28;20109;-70
2023/07/23 09:49:03;;;;;;;0.40;0.40;;;;;;;;;;5049359;28;20043;-71
2023/07/23 09:51:31;;;;;;;0.50;0.50;;;;;;;;;;5048927;28;20029;-71
2023/07/23 09:53:59;;;;;;;0.50;0.50;;;;;;;;;;5049039;28;20099;-73
2023/07/23 09:56:25;;;;;;;2.42;2.22;;;;;;;;;;5047924;28;20029;-71
2023/07/23 09:58:51;;;;;;;7.15;2.45;;;;;;;;;;5049120;28;20426;-71
2023/07/23 10:01:17;;;;;;;4.75;1.05;;;;;;;;;;5049643;28;20044;-71
2023/07/23 10:03:47;;;;;;;1.42;1.25;;;;;;;;;;5049392;28;20132;-71
2023/07/23 10:06:13;;;;;;;0.50;0.50;;;;;;;;;;5049187;28;20564;-71
2023/07/23 10:08:40;;;;;;;0.50;0.50;;;;;;;;;;5048696;28;20036;-73
2023/07/23 10:11:05;;;;;;;12.10;2.80;;;;;;;;;;5046487;28;20460;-71
2023/07/23 10:13:30;;;;;;;1.20;1.10;;;;;;;;;;5048608;28;20040;-73
2023/07/23 10:15:56;;;;;;;1.42;1.10;;;;;;;;;;5048776;28;20037;-73
2023/07/23 10:18:23;;;;;;;16.25;2.85;;;;;;;;;;5048863;28;20033;-73
2023/07/23 10:20:48;;;;;;;2.47;2.28;;;;;;;;;;5048914;28;20029;-73
2023/07/23 10:23:14;;;;;;;1.58;1.15;;;;;;;;;;5048650;28;20075;-71
2023/07/23 10:25:40;;;;;;;0.50;0.50;;;;;;;;;;5049009;28;20083;-73
2023/07/23 10:28:06;;;;;;;0.60;0.60;;;;;;;;;;5049189;28;20074;-74
2023/07/23 10:30:33;;;;;;;9.73;3.05;;;;;;;;;;5048493;28;20032;-73
2023/07/23 10:33:11;;;;;;;7.97;2.45;;;;;;;;;;5048441;28;20083;-73
2023/07/23 10:35:49;;;;;;;2.15;1.90;;;;;;;;;;5048598;28;20090;-71
2023/07/23 10:38:21;;;;;;;0.37;0.37;;;;;;;;;;5048575;28;20402;-73
2023/07/23 10:40:47;;;;;;;0.47;0.47;;;;;;;;;;5047730;28;20074;-73
2023/07/23 10:43:13;;;;;;;5.93;2.05;;;;;;;;;;5048576;28;20068;-73
2023/07/23 10:45:38;;;;;;;12.25;2.35;;;;;;;;;;5048355;28;20028;-72
2023/07/23 10:48:04;;;;;;;0.50;0.50;;;;;;;;;;5048583;28;20507;-71
2023/07/23 10:50:30;;;;;;;9.40;2.72;;;;;;;;;;5048655;28;20037;-73
2023/07/23 10:53:03;;;;;;;5.47;1.88;;;;;;;;;;5048340;28;20034;-72
2023/07/23 10:55:34;;;;;;;1.58;1.17;;;;;;;;;;5048483;28;20085;-74
2023/07/23 10:58:01;;;;;;;8.07;3.15;;;;;;;;;;5048309;28;20070;-73
2023/07/23 11:00:26;;;;;;;6.50;2.33;;;;;;;;;;5048271;28;20033;-73
2023/07/23 11:02:53;;;;;;;2.63;1.33;;;;;;;;;;5048144;28;20100;-73
2023/07/23 11:05:20;;;;;;;9.48;3.53;;;;;;;;;;5048003;28;20215;-73
2023/07/23 11:08:05;;;;;;;1.67;1.35;;;;;;;;;;5048187;28;20029;-73
2023/07/23 11:10:44;;;;;;;2.85;1.90;;;;;;;;;;5048154;28;20095;-73
2023/07/23 11:13:09;;;;;;;2.08;1.45;;;;;;;;;;5047858;28;20503;-73
2023/07/23 11:15:36;;;;;;;0.85;0.80;;;;;;;;;;5048351;28;20025;-70
2023/07/23 11:18:02;;;;;;;4.30;1.90;;;;;;;;;;5047911;28;20040;-71
2023/07/23 11:20:27;;;;;;;3.13;1.75;;;;;;;;;;5047897;28;20031;-71
2023/07/23 11:22:52;;;;;;;4.28;0.98;;;;;;;;;;5050576;28;20373;-71
2023/07/23 11:25:18;;;;;;;12.80;2.67;;;;;;;;;;5051083;28;20041;-71
2023/07/23 11:27:43;;;;;;;2.15;1.13;;;;;;;;;;5051674;28;20052;-71
2023/07/23 11:30:12;;;;;;;3.25;1.83;;;;;;;;;;5051152;28;20041;-70
2023/07/23 11:32:38;;;;;;;7.85;2.63;;;;;;;;;;5051262;28;20045;-71
2023/07/23 11:35:03;;;;;;;4.15;1.67;;;;;;;;;;5051058;28;20502;-70
2023/07/23 11:37:28;;;;;;;3.53;1.60;;;;;;;;;;5061547;28;20033;-72
2023/07/23 11:39:55;;;;;;;4.07;2.38;;;;;;;;;;5071059;28;20116;-70
2023/07/23 11:42:20;;;;;;;4.78;2.05;;;;;;;;;;5069991;28;20073;-71
2023/07/23 11:45:07;;;;;;;0.68;0.68;;;;;;;;;;5071153;28;20036;-71
2023/07/23 11:47:45;;;;;;;2.95;1.85;;;;;;;;;;5052963;28;20051;-71
2023/07/23 11:50:10;;;;;;;0.63;0.63;;;;;;;;;;5071340;28;20028;-71
2023/07/23 11:52:36;;;;;;;0.70;0.70;;;;;;;;;;5070904;28;20037;-70
2023/07/23 11:55:01;;;;;;;9.10;3.23;;;;;;;;;;5070662;28;20049;-71
2023/07/23 11:57:26;;;;;;;1.48;0.85;;;;;;;;;;5070872;28;20758;-71
2023/07/23 11:59:52;;;;;;;1.08;0.98;;;;;;;;;;5070733;28;20116;-71
2023/07/23 12:02:17;;;;;;;1.00;0.98;;;;;;;;;;5070724;28;20503;-72
2023/07/23 12:04:43;;;;;;;6.63;3.13;;;;;;;;;;5070797;28;20103;-73
2023/07/23 12:07:08;;;;;;;1.75;1.10;;;;;;;;;;5070696;28;20033;-74
2023/07/23 12:09:34;;;;;;;1.13;0.80;;;;;;;;;;5071384;28;20432;-71
2023/07/23 12:12:00;;;;;;;2.45;1.58;;;;;;;;;;5070531;28;20464;-71
2023/07/23 12:14:26;;;;;;;5.22;2.42;;;;;;;;;;5070755;28;20475;-71
2023/07/23 12:16:55;;;;;;;6.63;2.03;;;;;;;;;;5070660;28;20479;-70
2023/07/23 12:19:23;;;;;;;;;;;;;;;;;;5070920;28;20040;-71
2023/07/23 12:21:55;;;;;;;4.65;1.92;;;;;;;;;;5070387;28;20371;-71
2023/07/23 12:24:21;;;;;;;2.33;1.67;;;;;;;;;;5070327;28;20036;-71
2023/07/23 12:26:54;;;;;;;0.40;0.40;;;;;;;;;;5070752;28;20052;-70
2023/07/23 12:29:20;;;;;;;2.65;1.52;;;;;;;;;;5070106;28;20115;-71
2023/07/23 12:31:47;;;;;;;4.60;1.85;;;;;;;;;;5048717;28;20091;-70
2023/07/23 12:34:13;;;;;;;2.03;0.68;;;;;;;;;;5049270;28;20053;-72
2023/07/23 12:36:39;;;;;;;6.97;2.58;;;;;;;;;;5048875;28;20036;-71
2023/07/23 12:39:05;;;;;;;3.05;1.75;;;;;;;;;;5050120;28;20044;-74
2023/07/23 12:41:30;;;;;;;11.55;3.50;;;;;;;;;;5050706;28;20440;-71
2023/07/23 12:43:56;;;;;;;4.75;1.85;;;;;;;;;;5050282;28;20064;-73
2023/07/23 12:46:21;;;;;;;0.50;0.50;;;;;;;;;;5050266;28;20025;-71
2023/07/23 12:48:47;;;;;;;6.03;2.35;;;;;;;;;;5049826;28;20036;-71
2023/07/23 12:51:12;;;;;;;0.63;0.63;;;;;;;;;;5049861;28;20033;-71
2023/07/23 12:53:38;;;;;;;2.95;1.73;;;;;;;;;;5049880;28;20086;-71
2023/07/23 12:56:03;;;;;;;0.52;0.52;;;;;;;;;;5049759;28;20373;-75
2023/07/23 12:58:29;;;;;;;1.75;1.05;;;;;;;;;;5050777;28;20044;-75
2023/07/23 13:00:54;;;;;;;3.17;1.98;;;;;;;;;;5049847;28;20025;-71
2023/07/23 13:03:20;;;;;;;0.80;0.77;;;;;;;;;;5048551;28;20412;-72
2023/07/23 13:05:45;;;;;;;4.38;2.17;;;;;;;;;;5049897;28;20032;-72
2023/07/23 13:08:11;;;;;;;0.60;0.60;;;;;;;;;;5049615;28;20071;-73
2023/07/23 13:10:37;;;;;;;1.05;0.93;;;;;;;;;;5048999;28;20450;-73
2023/07/23 13:13:02;;;;;;;0.40;0.40;;;;;;;;;;5047840;28;20036;-72
2023/07/23 13:15:28;;;;;;;1.35;1.00;;;;;;;;;;5048051;28;20112;-73
2023/07/23 13:17:53;;;;;;;2.65;1.33;;;;;;;;;;5048573;28;20116;-71
2023/07/23 13:20:18;;;;;;;0.60;0.60;;;;;;;;;;5048126;28;20040;-72
2023/07/23 13:22:44;;;;;;;2.92;2.10;;;;;;;;;;5048734;28;20052;-72
2023/07/23 13:25:10;;;;;;;0.47;0.47;;;;;;;;;;5049355;28;20029;-72
2023/07/23 13:27:35;;;;;;;2.63;1.17;;;;;;;;;;5049691;28;20037;-72
2023/07/23 13:30:00;;;;;;;0.73;0.70;;;;;;;;;;5049839;28;20029;-72
2023/07/23 13:32:26;;;;;;;12.25;2.35;;;;;;;;;;5049492;28;20036;-72
2023/07/23 13:34:52;;;;;;;4.68;2.50;;;;;;;;;;5049397;28;20045;-73
2023/07/23 13:37:17;;;;;;;4.28;1.30;;;;;;;;;;5049349;28;20087;-72
2023/07/23 13:39:43;;;;;;;2.90;1.70;;;;;;;;;;5049839;28;20017;-72
2023/07/23 13:42:08;;;;;;;7.38;4.55;;;;;;;;;;5047577;28;20044;-73
2023/07/23 13:44:34;;;;;;;2.42;2.22;;;;;;;;;;5047421;28;20483;-73
2023/07/23 13:46:59;;;;;;;1.45;0.80;;;;;;;;;;5048415;28;20071;-73
2023/07/23 13:49:25;;;;;;;1.50;1.38;;;;;;;;;;5049380;28;20040;-76
2023/07/23 13:51:50;;;;;;;2.67;1.17;;;;;;;;;;5049306;28;20391;-76
2023/07/23 13:54:16;;;;;;;0.45;0.45;;;;;;;;;;5049356;28;20368;-72
2023/07/23 13:56:41;;;;;;;1.85;1.15;;;;;;;;;;5046492;28;20037;-72
2023/07/23 13:59:07;;;;;;;0.60;0.60;;;;;;;;;;5046677;28;20028;-72
2023/07/23 14:01:32;;;;;;;1.48;0.60;;;;;;;;;;5047400;28;20044;-72
2023/07/23 14:03:58;;;;;;;2.13;1.98;;;;;;;;;;5047108;28;20115;-73
2023/07/23 14:06:23;;;;;;;2.20;1.40;;;;;;;;;;5046563;28;20087;-73
2023/07/23 14:08:49;;;;;;;0.50;0.50;;;;;;;;;;5046659;28;20372;-73
2023/07/23 14:11:14;;;;;;;1.67;0.70;;;;;;;;;;5046934;28;20122;-72
2023/07/23 14:13:42;;;;;;;5.38;2.90;;;;;;;;;;5046768;28;20029;-72
2023/07/23 14:16:08;;;;;;;2.00;0.90;;;;;;;;;;5046739;28;20086;-72
2023/07/23 14:18:34;;;;;;;1.45;1.20;;;;;;;;;;5046803;28;20045;-74
2023/07/23 14:21:00;;;;;;;2.08;1.13;;;;;;;;;;5046351;28;20171;-73
2023/07/23 14:23:25;;;;;;;0.52;0.52;;;;;;;;;;5047107;28;20035;-72
2023/07/23 14:25:51;;;;;;;0.40;0.40;;;;;;;;;;5046523;28;20037;-73
2023/07/23 14:28:16;;;;;;;0.95;0.95;;;;;;;;;;5046865;28;20611;-73
2023/07/23 14:30:42;;;;;;;2.38;1.38;;;;;;;;;;5046804;28;20045;-72
2023/07/23 14:33:07;;;;;;;25.85;6.07;;;;;;;;;;5046087;28;20460;-72
2023/07/23 14:35:34;;;;;;;4.32;2.28;;;;;;;;;;5046470;28;20065;-73
2023/07/23 14:38:00;;;;;;;0.63;0.63;;;;;;;;;;5031019;28;20491;-72
2023/07/23 14:40:25;;;;;;;1.90;1.38;;;;;;;;;;5066519;28;20025;-74